Terminal Aerodrome Forecast
Issued by NWS

Home | Current Version | Previous Version | Text Only | Print | Product List | Glossary On
Versions: 1 2 3 4 5 6 7 8 9 10 11 12 13 14 15 16
000
FTUS45 KVEF 201720
TAFBIH
TAF
KBIH 201720Z 2018/2118 17011KT P6SM SCT250
     FM202000 19012G21KT P6SM SCT100 BKN250
     FM210200 33009KT P6SM BKN100 OVC250
     FM211300 36006KT P6SM VCSH BKN080 OVC120=

USA.gov is the U.S. government's official web portal to all federal, state and local government web resources and services.